Flight Track Log - Related Links

Times and Time Zones

All times are in EDT time to prevent confusion due to time zone crossing. See the SWA2624 flight status page for this flight to view local times or setup timezone preferences in your user account.

Time Position Orientation Groundspeed Altitude Reporting Facility
EDT Latitude Longitude Course Direction KTS MPH feet Rate Location/Type
Fri 11:35:33 PM 35.0431 -106.5767 129° Southeast 169 194 6,200  Level Albuquerque Center
Fri 11:36:10 PM 35.0297 -106.5564 129° Southeast 182 209 7,000 1,714 Climbing Albuquerque Center
Fri 11:37:11 PM 34.9644 -106.5808 197° South 226 260 9,000 2,115 Climbing Albuquerque Center
Fri 11:38:12 PM 34.9656 -106.6728 271° West 260 299 11,300 2,390 Climbing Albuquerque Center
Fri 11:39:14 PM 34.9800 -106.7883 279° West 325 374 13,900 2,732 Climbing Albuquerque Center
Fri 11:40:15 PM 34.9936 -106.9128 278° West 356 410 16,900 2,705 Climbing Albuquerque Center
Fri 11:41:16 PM 35.0131 -107.0503 280° West 388 447 19,400 2,607 Climbing Albuquerque Center
Fri 11:42:17 PM 35.0286 -107.1856 278° West 412 474 22,200 2,459 Climbing Albuquerque Center
Fri 11:43:18 PM 35.0450 -107.3286 278° West 424 488 24,400 1,951 Climbing Albuquerque Center
Fri 11:44:20 PM 35.0619 -107.4756 278° West 431 496 26,200 2,049 Climbing Albuquerque Center
Fri 11:45:21 PM 35.0794 -107.6250 278° West 442 509 28,600 2,262 Climbing Albuquerque Center
Fri 11:46:22 PM 35.0969 -107.7694 278° West 436 502 30,800 2,066 Climbing Albuquerque Center
Fri 11:47:23 PM 35.1150 -107.9269 278° West 430 495 32,800 1,869 Climbing Albuquerque Center
Fri 11:48:24 PM 35.1306 -108.0628 278° West 425 489 34,600 1,707 Climbing Albuquerque Center
Fri 11:49:26 PM 35.1453 -108.1928 278° West 412 474 36,300 1,854 Climbing Albuquerque Center
Fri 11:50:27 PM 35.1625 -108.3403 278° West 397 457 38,400 1,525 Climbing Albuquerque Center
Fri 11:51:28 PM 35.1767 -108.4650 278° West 389 448 39,400 787 Climbing Albuquerque Center
Fri 11:52:29 PM 35.1922 -108.6097 278° West 385 443 40,000 295 Climbing Albuquerque Center
Fri 11:53:30 PM 35.2061 -108.7342 278° West 385 443 40,000  Level Albuquerque Center
Fri 11:54:31 PM 35.2192 -108.8619 277° West 389 448 40,000  Level Albuquerque Center
Fri 11:55:33 PM 35.2361 -109.0128 278° West 397 457 40,000  Level Albuquerque Center
Fri 11:56:34 PM 35.2500 -109.1408 278° West 398 458 40,000  Level Albuquerque Center
Fri 11:57:35 PM 35.2633 -109.2683 277° West 395 455 40,000  Level Albuquerque Center
Fri 11:58:36 PM 35.2783 -109.4175 277° West 394 453 40,000  Level Albuquerque Center
Fri 11:59:37 PM 35.2900 -109.5433 277° West 391 450 40,000  Level Albuquerque Center
Sat 12:00:38 AM 35.3031 -109.6719 277° West 394 453 40,000  Level Albuquerque Center
Sat 12:01:39 AM 35.3183 -109.8200 277° West 393 452 40,000  Level Albuquerque Center
Sat 12:02:40 AM 35.3319 -109.9497 277° West 398 458 40,000  Level Albuquerque Center
Sat 12:03:41 AM 35.3431 -110.0744 276° West 390 449 40,000  Level Albuquerque Center
Sat 12:04:42 AM 35.3539 -110.2217 275° West 388 447 40,000  Level Albuquerque Center
Sat 12:05:43 AM 35.3658 -110.3472 277° West 388 447 40,000  Level Albuquerque Center
Sat 12:06:44 AM 35.3803 -110.4969 277° West 393 452 40,000  Level Albuquerque Center
Sat 12:07:45 AM 35.3919 -110.6278 276° West 400 460 40,000  Level Albuquerque Center
Sat 12:08:46 AM 35.4025 -110.7594 276° West 403 464 40,000  Level Albuquerque Center
Sat 12:09:47 AM 35.4172 -110.9122 277° West 405 466 40,000  Level Albuquerque Center
Sat 12:10:48 AM 35.4297 -111.0439 277° West 406 467 40,000  Level Albuquerque Center
Sat 12:11:49 AM 35.4403 -111.1750 276° West 405 466 40,000  Level Albuquerque Center
Sat 12:12:50 AM 35.4539 -111.3286 276° West 405 466 40,000 -1,082 Level Albuquerque Center
Sat 12:13:51 AM 35.4667 -111.4653 277° West 406 467 37,800 -2,508 Descending Albuquerque Center
Sat 12:14:52 AM 35.4769 -111.6011 275° West 404 465 34,900 -3,098 Descending Albuquerque Center
Sat 12:15:53 AM 35.4892 -111.7408 276° West 411 473 31,500 -2,410 Descending Albuquerque Center
Sat 12:16:54 AM 35.5006 -111.8861 276° West 424 488 30,000 -744 Descending Albuquerque Center
Sat 12:17:54 AM 35.5131 -112.0342 276° West 435 501 30,000  Level Albuquerque Center
Sat 12:18:55 AM 35.5242 -112.1789 275° West 432 497 30,000  Level Albuquerque Center
Sat 12:19:56 AM 35.5356 -112.3264 275° West 435 501 30,000  Level Albuquerque Center
Sat 12:20:20 AM 35.5408 -112.3850 276° West 435 501 30,000  Level Los Angeles Center
Sat 12:21:21 AM 35.5514 -112.5322 275° West 436 502 30,000  Level Los Angeles Center
Sat 12:22:23 AM 35.5658 -112.7019 276° West 434 499 30,000  Level Los Angeles Center
Sat 12:23:24 AM 35.5761 -112.8511 275° West 438 504 30,000  Level Los Angeles Center
Sat 12:24:25 AM 35.5881 -113.0069 275° West 430 495 30,000  Level Los Angeles Center
Sat 12:25:27 AM 35.5981 -113.1561 275° West 435 501 30,000  Level Los Angeles Center
Sat 12:26:28 AM 35.6072 -113.2911 275° West 442 509 30,000 -393 Level Los Angeles Center
Sat 12:27:29 AM 35.6172 -113.4358 275° West 434 499 29,200 -2,195 Descending Los Angeles Center
Sat 12:28:31 AM 35.6331 -113.6094 276° West 432 497 25,500 -3,317 Descending Los Angeles Center
Sat 12:29:32 AM 35.6544 -113.7525 280° West 430 495 22,400 -2,852 Descending Los Angeles Center
Sat 12:30:33 AM 35.6733 -113.8881 280° West 409 471 19,700 -2,585 Descending Los Angeles Center
Sat 12:31:35 AM 35.6917 -114.0194 280° West 393 452 17,100 -2,488 Descending Los Angeles Center
Sat 12:32:36 AM 35.7097 -114.1439 280° West 375 432 14,600 -2,256 Descending Los Angeles Center
Sat 12:33:32 AM 35.7297 -114.2689 281° West 367 422 12,700 -1,436 Descending Los Angeles Center
Sat 12:34:33 AM 35.7844 -114.3672 304° West 361 415 11,800 -984 Descending Los Angeles Center
Sat 12:35:40 AM 35.8658 -114.4697 314° West 363 418 10,600 -844 Descending Los Angeles Center
Sat 12:36:41 AM 35.9258 -114.5439 315° West 330 380 10,000 -689 Descending Los Angeles Center
Sat 12:37:42 AM 35.9814 -114.6128 315° West 287 330 9,200 -927 Descending Los Angeles Center
Sat 12:38:44 AM 36.0167 -114.6983 297° West 279 321 8,100 -927 Descending Los Angeles Center
Sat 12:39:45 AM 36.0442 -114.7789 293° West 265 305 7,300 -836 Descending Los Angeles Center
Sat 12:40:46 AM 36.0706 -114.8531 294° West 251 289 6,400 -927 Descending Los Angeles Center
Sat 12:41:48 AM 36.0744 -114.9297 274° West 236 272 5,400 -1,350 Descending Los Angeles Center
Sat 12:42:46 AM 36.0739 -115.0092 270° West 195 224 3,700 -1,180 Descending Los Angeles Center
Sat 12:43:50 AM 36.0742 -115.0661 270° West 186 214 3,000 -672 Descending Los Angeles Center
Sat 12:44:51 AM 36.0742 -115.1125 270° West 156 180 2,300 -689 Descending Los Angeles Center
Sat 12:46:00 AM 36.0667 -115.1500 270° West  Level FlightAware Approximate
Sat 12:53:00 AM 36.0801 -115.1523 270° West  Level Estimated

Login

Don't have an account? Register now (free) for customized features, flight alerts, and more!